Time;durP1;ratioP1;P1;durP2;ratioP2;P2;SDS_P1;SDS_P2;PMS_P1;PMS_P2;Temp;Humidity;BMP_temperature;BMP_pressure;BME280_temperature;BME280_humidity;BME280_pressure;Samples;Min_cycle;Max_cycle;Signal;HPM_P1;HPM_P2
2022/12/21 00:01:26;;;;;;;21.10;2.92;;;5.90;99.90;;;;;;5085481;28;20059;-60
2022/12/21 00:03:59;;;;;;;25.08;4.45;;;6.00;99.90;;;;;;5081772;28;20056;-60
2022/12/21 00:06:30;;;;;;;16.15;2.70;;;6.00;99.90;;;;;;5067942;28;20384;-59
2022/12/21 00:09:00;;;;;;;28.05;4.13;;;6.00;99.90;;;;;;5081349;28;20063;-60
2022/12/21 00:11:29;;;;;;;19.65;3.80;;;6.10;99.90;;;;;;5087782;28;20040;-60
2022/12/21 00:13:59;;;;;;;18.67;2.72;;;6.10;99.90;;;;;;5085438;28;20056;-60
2022/12/21 00:16:29;;;;;;;19.00;3.50;;;6.10;99.90;;;;;;5087032;28;20055;-63
2022/12/21 00:18:58;;;;;;;20.23;3.67;;;6.10;99.90;;;;;;5086314;28;20051;-63
2022/12/21 00:21:32;;;;;;;19.70;3.72;;;6.10;99.90;;;;;;5087844;28;20040;-61
2022/12/21 00:24:00;;;;;;;20.95;3.08;;;6.10;99.90;;;;;;5087508;28;20056;-61
2022/12/21 00:26:34;;;;;;;20.63;3.15;;;6.10;99.90;;;;;;5086813;28;20043;-61
2022/12/21 00:29:03;;;;;;;18.00;3.28;;;6.10;99.90;;;;;;5086355;28;20079;-60
2022/12/21 00:31:33;;;;;;;29.02;3.55;;;6.00;99.90;;;;;;5085403;28;20052;-59
2022/12/21 00:34:01;;;;;;;21.38;2.35;;;6.00;99.90;;;;;;5085377;28;20106;-60
2022/12/21 00:36:32;;;;;;;23.95;3.42;;;6.00;99.90;;;;;;5086271;28;20052;-60
2022/12/21 00:39:00;;;;;;;19.52;4.82;;;6.00;99.90;;;;;;5068411;28;20048;-60
2022/12/21 00:41:28;;;;;;;15.15;3.35;;;6.00;99.90;;;;;;5086588;28;20047;-60
2022/12/21 00:43:56;;;;;;;18.10;4.43;;;6.00;99.90;;;;;;5087629;28;20827;-61
2022/12/21 00:46:27;;;;;;;19.10;3.03;;;6.00;99.90;;;;;;5087882;28;20059;-61
2022/12/21 00:48:56;;;;;;;26.45;4.80;;;6.10;99.90;;;;;;5085210;28;20051;-62
2022/12/21 00:51:25;;;;;;;22.13;2.60;;;6.10;99.90;;;;;;5090133;28;20048;-63
2022/12/21 00:53:55;;;;;;;18.43;3.77;;;6.10;99.90;;;;;;5090981;28;20055;-61
2022/12/21 00:56:24;;;;;;;23.55;3.45;;;6.10;99.90;;;;;;5090346;28;20395;-61
2022/12/21 00:58:52;;;;;;;17.73;3.42;;;6.10;99.90;;;;;;5091027;28;20055;-60
2022/12/21 01:01:23;;;;;;;22.70;3.35;;;6.10;99.90;;;;;;5088128;28;20384;-61
2022/12/21 01:03:53;;;;;;;23.05;3.03;;;6.10;99.90;;;;;;5085171;28;20043;-60
2022/12/21 01:06:23;;;;;;;19.40;3.88;;;6.10;99.90;;;;;;5085788;28;20047;-59
2022/12/21 01:08:51;;;;;;;19.83;3.42;;;6.10;99.90;;;;;;5089139;28;20032;-59
2022/12/21 01:11:20;;;;;;;18.33;2.63;;;6.10;99.90;;;;;;5089704;28;20051;-59
2022/12/21 01:13:48;;;;;;;17.48;3.58;;;6.20;99.90;;;;;;5090415;28;20403;-60
2022/12/21 01:16:19;;;;;;;24.83;5.82;;;6.10;99.90;;;;;;5090336;28;20063;-59
2022/12/21 01:18:47;;;;;;;17.08;3.10;;;;;;;;;;5089373;28;20044;-59
2022/12/21 01:21:18;;;;;;;29.25;3.90;;;6.10;99.90;;;;;;5089579;28;20518;-60
2022/12/21 01:23:46;;;;;;;21.73;3.92;;;6.10;99.90;;;;;;5089882;28;20067;-60
2022/12/21 01:26:14;;;;;;;18.13;3.03;;;6.20;99.90;;;;;;5090096;28;20396;-60
2022/12/21 01:28:42;;;;;;;15.43;2.08;;;6.20;99.90;;;;;;5089221;28;20040;-60
2022/12/21 01:31:11;;;;;;;20.77;3.25;;;6.20;99.90;;;;;;5072577;28;20059;-60
2022/12/21 01:33:39;;;;;;;26.90;3.85;;;6.20;99.90;;;;;;5084335;28;20040;-61
2022/12/21 01:36:12;;;;;;;15.65;2.17;;;6.20;99.90;;;;;;5088562;28;20377;-61
2022/12/21 01:38:42;;;;;;;22.65;2.88;;;6.20;99.90;;;;;;5090029;28;20039;-61
2022/12/21 01:41:19;;;;;;;21.88;3.58;;;6.20;99.90;;;;;;5088483;28;20052;-60
2022/12/21 01:43:50;;;;;;;21.90;3.60;;;6.30;99.90;;;;;;5089869;28;20048;-60
2022/12/21 01:46:22;;;;;;;26.58;3.97;;;6.30;99.90;;;;;;5088575;28;20052;-60
2022/12/21 01:49:04;;;;;;;27.80;2.83;;;6.30;99.90;;;;;;5088289;28;20047;-60
2022/12/21 01:51:35;;;;;;;22.40;2.92;;;6.30;99.90;;;;;;5088987;28;20040;-60
2022/12/21 01:54:16;;;;;;;18.40;2.45;;;6.30;99.90;;;;;;5088173;28;20044;-60
2022/12/21 01:56:48;;;;;;;13.63;2.83;;;6.30;99.90;;;;;;5090052;28;20063;-60
2022/12/21 01:59:25;;;;;;;20.92;3.15;;;6.30;99.90;;;;;;5086978;28;20218;-60
2022/12/21 02:01:54;;;;;;;19.17;3.05;;;6.30;99.90;;;;;;5090052;28;20044;-59
2022/12/21 02:04:22;;;;;;;25.97;3.10;;;6.30;99.90;;;;;;5086867;28;20044;-59
2022/12/21 02:06:55;;;;;;;26.45;3.38;;;6.30;99.90;;;;;;5088618;28;20040;-60
2022/12/21 02:09:29;;;;;;;17.65;2.47;;;6.30;99.90;;;;;;5088078;28;20407;-59
2022/12/21 02:12:00;;;;;;;18.27;3.08;;;6.30;99.90;;;;;;5088840;28;20048;-59
2022/12/21 02:14:30;;;;;;;26.05;3.80;;;6.30;99.90;;;;;;5088793;28;20047;-60
2022/12/21 02:17:22;;;;;;;28.00;3.08;;;6.30;99.90;;;;;;5087330;28;20040;-59
2022/12/21 02:20:29;;;;;;;26.65;2.58;;;6.20;99.90;;;;;;5079802;28;20483;-60
2022/12/21 02:23:17;;;;;;;20.35;3.90;;;6.20;99.90;;;;;;5087254;28;20570;-60
2022/12/21 02:25:50;;;;;;;16.52;2.78;;;6.20;99.90;;;;;;5089340;28;20048;-60
2022/12/21 02:28:30;;;;;;;21.58;3.15;;;6.20;99.90;;;;;;5089380;28;20051;-59
2022/12/21 02:31:30;;;;;;;26.20;4.50;;;6.20;99.90;;;;;;5083936;28;20048;-60
2022/12/21 02:34:07;;;;;;;26.83;3.13;;;6.20;99.90;;;;;;5091331;28;20506;-61
2022/12/21 02:36:54;;;;;;;19.63;2.90;;;6.20;99.90;;;;;;5086271;28;20118;-61
2022/12/21 02:39:34;;;;;;;16.10;2.40;;;6.20;99.90;;;;;;5088633;28;20047;-60
2022/12/21 02:42:06;;;;;;;;;;;6.20;99.90;;;;;;5090961;28;20039;-60
2022/12/21 02:44:54;;;;;;;24.20;2.90;;;6.30;99.90;;;;;;5091390;28;19920;-60
2022/12/21 02:47:45;;;;;;;15.35;2.55;;;6.30;99.90;;;;;;5091246;28;20095;-61
2022/12/21 02:50:14;;;;;;;18.02;2.75;;;6.30;99.90;;;;;;5091020;28;20055;-61
2022/12/21 02:53:06;;;;;;;16.58;2.88;;;6.30;99.90;;;;;;5090157;28;20391;-61
2022/12/21 02:55:34;;;;;;;19.35;3.08;;;6.40;99.90;;;;;;5092503;28;20047;-60
2022/12/21 02:58:18;;;;;;;13.60;2.03;;;6.30;99.90;;;;;;5090134;28;20044;-59
2022/12/21 03:00:45;;;;;;;21.08;2.20;;;6.30;99.90;;;;;;5091222;28;20059;-61
2022/12/21 03:06:35;;;;;;;18.00;2.58;;;6.30;99.90;;;;;;5090411;28;20046;-60
2022/12/21 03:09:12;;;;;;;13.77;2.00;;;6.30;99.90;;;;;;5090385;28;20044;-60
2022/12/21 03:12:13;;;;;;;16.17;2.40;;;6.30;99.90;;;;;;5090100;28;20391;-60
2022/12/21 03:14:45;;;;;;;10.70;2.15;;;6.30;99.90;;;;;;5089437;28;20040;-60
2022/12/21 03:17:42;;;;;;;13.35;2.40;;;6.30;99.90;;;;;;5090730;28;20076;-61
2022/12/21 03:20:28;;;;;;;16.95;2.00;;;6.30;99.90;;;;;;5090991;28;20040;-61
2022/12/21 03:23:13;;;;;;;20.15;2.10;;;6.40;99.90;;;;;;5089991;28;20052;-61
2022/12/21 03:26:04;;;;;;;15.57;2.25;;;6.30;99.90;;;;;;5091850;28;20495;-59
2022/12/21 03:28:35;;;;;;;14.43;1.92;;;6.30;99.90;;;;;;5091652;28;20495;-59
2022/12/21 03:31:09;;;;;;;16.00;2.22;;;6.30;99.90;;;;;;5090927;28;20044;-59
2022/12/21 03:33:43;;;;;;;15.75;2.30;;;6.30;99.90;;;;;;5091799;28;20048;-60
2022/12/21 03:36:18;;;;;;;11.70;2.47;;;6.30;99.90;;;;;;5091619;28;20051;-60
2022/12/21 03:38:57;;;;;;;11.80;1.70;;;6.30;99.90;;;;;;5091747;28;20055;-59
2022/12/21 03:41:41;;;;;;;20.08;2.05;;;6.30;99.90;;;;;;5090532;28;20044;-59
2022/12/21 03:44:13;;;;;;;15.30;1.95;;;6.30;99.90;;;;;;5089402;28;20118;-59
2022/12/21 03:46:50;;;;;;;17.20;2.53;;;6.30;99.90;;;;;;5090069;28;20048;-59
2022/12/21 03:49:33;;;;;;;12.93;2.13;;;6.30;99.90;;;;;;5090705;28;20048;-59
2022/12/21 03:52:12;;;;;;;18.30;2.85;;;6.30;99.90;;;;;;5090598;28;20044;-60
2022/12/21 03:54:58;;;;;;;9.77;2.40;;;6.30;99.90;;;;;;5091319;28;20048;-60
2022/12/21 03:57:27;;;;;;;7.35;1.60;;;6.30;99.90;;;;;;5091659;28;20043;-59
2022/12/21 03:59:58;;;;;;;15.93;3.20;;;6.30;99.90;;;;;;5091707;28;20044;-60
2022/12/21 04:02:33;;;;;;;13.27;1.77;;;6.30;99.90;;;;;;5089771;28;20051;-60
2022/12/21 04:05:06;;;;;;;15.02;1.88;;;6.30;99.90;;;;;;5091344;28;20041;-60
2022/12/21 04:07:36;;;;;;;14.15;2.13;;;6.30;99.90;;;;;;5091226;28;20059;-59
2022/12/21 04:10:11;;;;;;;13.25;1.77;;;6.30;99.90;;;;;;5091088;28;20047;-60
2022/12/21 04:12:39;;;;;;;10.40;1.23;;;6.30;99.90;;;;;;5086599;28;20048;-60
2022/12/21 04:15:14;;;;;;;5.82;0.93;;;6.30;99.90;;;;;;5090168;28;20059;-59
2022/12/21 04:17:43;;;;;;;7.65;1.58;;;6.30;99.90;;;;;;5090100;28;20396;-59
2022/12/21 04:20:15;;;;;;;6.10;1.48;;;6.30;99.90;;;;;;5091327;28;20052;-60
2022/12/21 04:28:26;;;;;;;8.25;1.50;;;6.40;99.90;;;;;;5093882;28;20048;-60
2022/12/21 04:31:14;;;;;;;5.30;0.90;;;6.50;99.90;;;;;;5093901;28;20404;-59
2022/12/21 04:33:41;;;;;;;14.45;2.15;;;6.40;99.90;;;;;;5095041;28;20044;-60
2022/12/21 04:38:55;;;;;;;4.93;1.08;;;6.30;99.90;;;;;;5094858;28;20040;-59
2022/12/21 04:41:22;;;;;;;9.07;0.82;;;6.30;99.90;;;;;;5093852;28;20036;-58
2022/12/21 04:43:50;;;;;;;6.30;1.30;;;6.30;99.90;;;;;;5094338;28;20059;-59
2022/12/21 04:46:18;;;;;;;8.40;0.95;;;6.30;99.90;;;;;;5094869;28;20051;-59
2022/12/21 04:48:47;;;;;;;6.70;0.90;;;6.20;99.90;;;;;;5093128;28;20047;-59
2022/12/21 04:51:20;;;;;;;5.93;1.60;;;6.20;99.90;;;;;;5093722;28;20062;-59
2022/12/21 04:53:49;;;;;;;6.38;0.98;;;6.20;99.90;;;;;;5073469;28;20040;-59
2022/12/21 04:56:17;;;;;;;6.07;1.83;;;6.20;99.90;;;;;;5074648;28;20049;-59
2022/12/21 04:58:45;;;;;;;4.43;0.90;;;6.20;99.90;;;;;;5093242;28;20040;-61
2022/12/21 05:01:19;;;;;;;8.10;1.45;;;6.20;99.90;;;;;;5094188;28;20056;-61
2022/12/21 05:03:48;;;;;;;7.13;1.05;;;6.20;99.90;;;;;;5090368;28;20051;-60
2022/12/21 05:06:17;;;;;;;7.47;0.88;;;6.10;99.90;;;;;;5094052;28;20044;-61
2022/12/21 05:08:45;;;;;;;6.35;1.10;;;6.10;99.90;;;;;;5094376;28;20825;-62
2022/12/21 05:11:21;;;;;;;3.72;0.85;;;6.10;99.90;;;;;;5094214;28;20047;-61
2022/12/21 05:13:49;;;;;;;8.23;1.08;;;6.10;99.90;;;;;;5074197;28;20048;-62
2022/12/21 05:16:19;;;;;;;5.72;0.95;;;6.10;99.90;;;;;;5073949;28;20060;-60
2022/12/21 05:18:52;;;;;;;5.45;2.25;;;6.00;99.90;;;;;;5073966;28;20048;-61
2022/12/21 05:21:20;;;;;;;5.90;1.52;;;6.00;99.90;;;;;;5073791;28;20051;-62
2022/12/21 05:23:48;;;;;;;9.85;0.88;;;5.90;99.90;;;;;;5071903;28;20055;-61
2022/12/21 05:26:16;;;;;;;5.20;1.00;;;5.90;99.90;;;;;;5073688;28;20051;-62
2022/12/21 05:28:45;;;;;;;9.40;1.83;;;5.80;99.90;;;;;;5073910;28;20049;-62
2022/12/21 05:31:14;;;;;;;7.53;1.13;;;5.80;99.90;;;;;;5073769;28;20055;-63
2022/12/21 05:33:42;;;;;;;11.30;1.30;;;5.70;99.90;;;;;;5092402;28;20044;-62
2022/12/21 05:36:12;;;;;;;5.45;1.75;;;5.70;99.90;;;;;;5093822;28;20296;-63
2022/12/21 05:38:40;;;;;;;7.55;1.17;;;5.60;99.90;;;;;;5093819;28;20048;-62
2022/12/21 05:41:09;;;;;;;6.63;1.20;;;5.60;99.90;;;;;;5093702;28;20048;-62
2022/12/21 05:43:37;;;;;;;10.60;1.30;;;5.50;99.90;;;;;;5093064;28;20047;-63
2022/12/21 05:46:07;;;;;;;5.82;2.17;;;5.40;99.90;;;;;;5093902;28;20044;-62
2022/12/21 05:48:36;;;;;;;4.72;1.38;;;5.30;99.90;;;;;;5087362;28;20051;-62
2022/12/21 05:51:11;;;;;;;5.70;1.10;;;5.30;99.90;;;;;;5089566;28;20051;-60
2022/12/21 05:53:41;;;;;;;3.00;1.02;;;5.20;99.90;;;;;;5089109;28;20514;-60
2022/12/21 05:56:09;;;;;;;7.88;1.73;;;5.20;99.90;;;;;;5090304;28;20059;-61
2022/12/21 05:58:37;;;;;;;4.50;1.08;;;5.10;99.90;;;;;;5075067;28;20052;-61
2022/12/21 06:01:06;;;;;;;7.53;1.13;;;5.10;99.90;;;;;;5068666;28;20062;-60
2022/12/21 06:03:34;;;;;;;9.35;1.20;;;5.20;99.90;;;;;;5078594;28;20059;-60
2022/12/21 06:06:14;;;;;;;6.35;1.00;;;5.20;99.90;;;;;;5085765;28;20055;-60
2022/12/21 06:08:43;;;;;;;8.80;1.33;;;5.20;99.90;;;;;;5087687;28;20403;-60
2022/12/21 06:11:14;;;;;;;4.53;1.38;;;5.20;99.90;;;;;;5081260;28;20044;-59
2022/12/21 06:13:42;;;;;;;5.88;1.25;;;5.20;99.90;;;;;;5088188;28;20063;-60
2022/12/21 06:16:16;;;;;;;4.22;1.15;;;5.30;99.90;;;;;;5071961;28;20051;-60
2022/12/21 06:18:45;;;;;;;5.95;1.27;;;5.40;99.90;;;;;;5088204;28;20048;-63
2022/12/21 06:21:14;;;;;;;7.13;1.20;;;5.40;99.90;;;;;;5088410;28;20035;-60
2022/12/21 06:23:43;;;;;;;3.58;0.60;;;5.40;99.90;;;;;;5089107;28;20047;-60
2022/12/21 06:26:14;;;;;;;6.38;1.05;;;5.40;99.90;;;;;;5087567;28;20078;-60
2022/12/21 06:28:42;;;;;;;4.55;0.90;;;5.40;99.90;;;;;;5082969;28;20484;-60
2022/12/21 06:31:11;;;;;;;11.27;1.05;;;5.30;99.90;;;;;;5088807;28;20048;-60
2022/12/21 06:33:40;;;;;;;4.32;0.70;;;5.20;99.90;;;;;;5089033;28;20491;-60
2022/12/21 06:36:09;;;;;;;8.15;0.82;;;5.30;99.90;;;;;;5071185;28;20040;-60
2022/12/21 06:38:37;;;;;;;1.15;0.55;;;5.20;99.90;;;;;;5089196;28;20055;-60
2022/12/21 06:41:07;;;;;;;3.58;0.50;;;5.10;99.90;;;;;;5087994;28;20072;-60
2022/12/21 06:43:36;;;;;;;3.42;0.65;;;5.10;99.90;;;;;;5087957;28;20058;-60
2022/12/21 06:46:07;;;;;;;2.22;0.40;;;5.10;99.90;;;;;;5074397;28;20051;-60
2022/12/21 06:48:36;;;;;;;0.30;0.30;;;5.10;99.90;;;;;;5074712;28;20052;-60
2022/12/21 06:51:16;;;;;;;3.53;0.38;;;5.20;99.90;;;;;;5078152;28;20051;-60
2022/12/21 06:53:46;;;;;;;1.10;0.30;;;5.20;99.90;;;;;;5088466;28;20411;-59
2022/12/21 06:56:19;;;;;;;2.17;0.25;;;5.20;99.90;;;;;;5088038;28;20056;-60
2022/12/21 06:58:52;;;;;;;1.75;0.17;;;5.20;99.90;;;;;;5083426;28;20044;-59
2022/12/21 07:01:26;;;;;;;1.35;0.30;;;5.30;99.90;;;;;;5071145;28;20047;-59
2022/12/21 07:03:55;;;;;;;1.45;0.30;;;5.30;99.90;;;;;;5081089;28;20832;-59
2022/12/21 07:06:25;;;;;;;2.53;0.57;;;5.40;99.90;;;;;;5086264;28;20048;-59
2022/12/21 07:08:53;;;;;;;2.30;0.43;;;5.40;99.90;;;;;;5088590;28;20044;-59
2022/12/21 07:11:24;;;;;;;1.35;0.13;;;5.40;99.90;;;;;;5087767;28;20071;-60
2022/12/21 07:13:54;;;;;;;2.38;0.35;;;5.40;99.90;;;;;;5084580;28;20044;-60
2022/12/21 07:16:23;;;;;;;1.20;0.17;;;5.40;99.90;;;;;;5070699;28;20048;-60
2022/12/21 07:18:51;;;;;;;3.20;0.20;;;5.40;99.90;;;;;;5084992;28;20056;-60
2022/12/21 07:21:20;;;;;;;1.77;0.32;;;5.40;99.90;;;;;;5087574;28;20040;-60
2022/12/21 07:23:48;;;;;;;1.73;0.30;;;5.40;99.90;;;;;;5088190;28;20044;-60
2022/12/21 07:26:19;;;;;;;5.53;0.43;;;5.40;99.90;;;;;;5087536;28;20060;-60
2022/12/21 07:28:47;;;;;;;6.03;0.80;;;5.40;99.90;;;;;;5082710;28;20036;-60
2022/12/21 07:31:22;;;;;;;5.78;0.60;;;5.40;99.90;;;;;;5088510;28;20161;-61
2022/12/21 07:33:51;;;;;;;2.55;0.35;;;5.40;99.90;;;;;;5087032;28;20055;-60
2022/12/21 07:36:19;;;;;;;7.38;0.80;;;5.30;99.90;;;;;;5087766;28;20036;-60
2022/12/21 07:38:47;;;;;;;5.65;0.82;;;5.30;99.90;;;;;;5084769;28;20055;-60
2022/12/21 07:41:16;;;;;;;5.47;0.43;;;5.30;99.90;;;;;;5085702;28;20491;-60
2022/12/21 07:43:44;;;;;;;1.08;0.30;;;5.30;99.90;;;;;;5083950;28;20043;-60
2022/12/21 07:46:18;;;;;;;1.75;0.77;;;5.30;99.90;;;;;;5087055;28;20487;-58
2022/12/21 07:48:47;;;;;;;3.47;0.20;;;5.30;99.90;;;;;;5086947;28;20044;-61
2022/12/21 07:51:15;;;;;;;2.60;0.30;;;5.30;99.90;;;;;;5080270;28;20044;-63
2022/12/21 07:53:43;;;;;;;1.38;0.17;;;5.30;99.90;;;;;;5078442;28;20037;-61
2022/12/21 07:56:12;;;;;;;4.60;0.40;;;5.30;99.90;;;;;;5067300;28;20402;-61
2022/12/21 07:58:40;;;;;;;2.75;0.45;;;5.20;99.90;;;;;;5074456;28;20404;-62
2022/12/21 08:01:18;;;;;;;5.70;0.98;;;5.30;99.90;;;;;;5076903;28;20044;-60
2022/12/21 08:03:51;;;;;;;2.30;0.20;;;5.00;99.90;;;;;;5080631;28;20052;-62
2022/12/21 08:06:19;;;;;;;3.92;0.73;;;5.30;99.90;;;;;;5069065;28;20555;-61
2022/12/21 08:08:47;;;;;;;5.82;0.47;;;5.30;99.90;;;;;;5078568;28;20510;-64
2022/12/21 08:11:17;;;;;;;0.50;0.30;;;5.20;99.90;;;;;;5086015;28;20102;-64
2022/12/21 08:13:45;;;;;;;2.85;0.52;;;5.20;99.90;;;;;;5082969;28;20047;-63
2022/12/21 08:16:15;;;;;;;4.68;0.60;;;5.20;99.90;;;;;;5083896;28;20044;-63
2022/12/21 08:18:43;;;;;;;6.55;0.85;;;5.10;99.90;;;;;;5086346;28;20044;-61
2022/12/21 08:21:11;;;;;;;2.47;0.40;;;5.10;99.90;;;;;;5086469;28;20040;-60
2022/12/21 08:23:39;;;;;;;3.70;0.40;;;5.10;99.90;;;;;;5085848;28;20058;-61
2022/12/21 08:26:11;;;;;;;3.38;0.30;;;5.00;99.90;;;;;;5084523;28;20484;-60
2022/12/21 08:28:41;;;;;;;3.42;0.28;;;5.00;99.90;;;;;;5078484;28;20059;-60
2022/12/21 08:31:14;;;;;;;3.58;0.73;;;4.90;99.90;;;;;;5081296;28;20040;-59
2022/12/21 08:33:43;;;;;;;1.13;0.20;;;4.90;99.90;;;;;;5086232;28;20055;-59
2022/12/21 08:36:14;;;;;;;6.10;0.70;;;4.90;99.90;;;;;;5087770;28;20102;-61
2022/12/21 08:38:41;;;;;;;1.05;0.38;;;4.90;99.90;;;;;;5085370;28;20059;-61
2022/12/21 08:41:29;;;;;;;6.72;0.95;;;4.90;99.90;;;;;;5087732;28;20055;-60
2022/12/21 08:43:57;;;;;;;5.70;0.77;;;4.70;99.90;;;;;;5079633;28;20514;-63
2022/12/21 08:46:24;;;;;;;1.38;0.30;;;4.70;99.90;;;;;;5085291;28;20528;-63
2022/12/21 08:48:52;;;;;;;3.08;0.90;;;4.70;99.90;;;;;;5084231;28;20048;-62
2022/12/21 08:51:20;;;;;;;4.50;0.65;;;4.60;99.90;;;;;;5083782;28;20056;-62
2022/12/21 08:53:48;;;;;;;4.13;0.47;;;4.60;99.90;;;;;;5079529;28;20044;-60
2022/12/21 08:56:20;;;;;;;3.13;0.50;;;4.50;99.90;;;;;;5067386;28;20388;-61
2022/12/21 08:58:47;;;;;;;2.33;0.50;;;4.50;99.90;;;;;;5064630;28;20052;-61
2022/12/21 09:01:22;;;;;;;4.72;1.02;;;4.50;99.90;;;;;;5076596;28;20040;-63
2022/12/21 09:03:50;;;;;;;6.50;0.98;;;4.40;99.90;;;;;;5078854;28;20048;-62
2022/12/21 09:06:18;;;;;;;7.93;0.50;;;4.40;99.90;;;;;;5084076;28;20052;-60
2022/12/21 09:08:46;;;;;;;2.63;0.50;;;4.40;99.90;;;;;;5088042;28;20055;-62
2022/12/21 09:11:16;;;;;;;2.08;0.47;;;4.30;99.90;;;;;;5090927;28;20057;-62
2022/12/21 09:13:44;;;;;;;6.75;1.40;;;4.30;99.90;;;;;;5074922;28;20044;-62
2022/12/21 09:16:17;;;;;;;10.35;0.95;;;4.20;99.90;;;;;;5069764;28;20052;-62
2022/12/21 09:18:46;;;;;;;2.70;0.68;;;4.30;99.90;;;;;;5086912;28;20040;-62
2022/12/21 09:21:15;;;;;;;4.72;1.45;;;4.30;99.90;;;;;;5072295;28;20049;-60
2022/12/21 09:23:43;;;;;;;2.77;1.33;;;4.30;99.90;;;;;;5074132;28;20032;-60
2022/12/21 09:26:12;;;;;;;9.48;1.20;;;4.30;99.90;;;;;;5069223;28;20308;-62
2022/12/21 09:28:40;;;;;;;4.45;0.80;;;4.40;99.90;;;;;;5073154;28;20043;-62
2022/12/21 09:31:11;;;;;;;6.97;0.65;;;4.60;99.90;;;;;;5069557;28;20048;-62
2022/12/21 09:33:42;;;;;;;9.40;0.80;;;4.60;99.90;;;;;;5083618;28;20355;-62
2022/12/21 09:36:12;;;;;;;5.30;1.20;;;4.80;99.90;;;;;;5082537;28;20407;-62
2022/12/21 09:38:40;;;;;;;8.20;1.07;;;5.00;99.90;;;;;;5075102;28;20044;-62
2022/12/21 09:41:07;;;;;;;4.78;0.80;;;5.10;99.90;;;;;;5077700;28;20293;-62
2022/12/21 09:43:38;;;;;;;5.18;0.88;;;5.30;99.90;;;;;;5077519;28;20036;-62
2022/12/21 09:46:09;;;;;;;7.13;1.60;;;5.40;99.90;;;;;;5070943;28;20503;-61
2022/12/21 09:48:52;;;;;;;3.35;2.22;;;5.50;99.90;;;;;;5079941;28;20502;-61
2022/12/21 09:51:30;;;;;;;4.35;0.90;;;5.60;99.90;;;;;;5086516;28;20040;-63
2022/12/21 09:54:15;;;;;;;15.23;1.65;;;5.70;99.90;;;;;;5085871;28;20052;-62
2022/12/21 09:56:47;;;;;;;4.93;0.70;;;5.80;99.90;;;;;;5082820;28;20052;-60
2022/12/21 09:59:19;;;;;;;3.50;0.70;;;5.90;99.90;;;;;;5086645;28;20399;-60
2022/12/21 10:02:19;;;;;;;6.95;0.90;;;5.90;99.90;;;;;;5077795;28;20496;-60
2022/12/21 10:05:15;;;;;;;2.70;1.02;;;6.00;99.90;;;;;;5082464;28;20047;-59
2022/12/21 10:08:30;;;;;;;5.47;1.25;;;6.10;99.90;;;;;;5074481;28;20036;-61
2022/12/21 10:11:10;;;;;;;8.80;0.73;;;6.20;99.90;;;;;;5072222;28;20048;-60
2022/12/21 10:13:41;;;;;;;9.23;0.93;;;6.20;99.90;;;;;;5089300;28;20051;-60
2022/12/21 10:16:33;;;;;;;2.70;0.60;;;6.30;99.90;;;;;;5087465;28;20040;-59
2022/12/21 10:19:27;;;;;;;5.28;0.60;;;6.50;99.90;;;;;;5070997;28;20057;-60
2022/12/21 10:21:54;;;;;;;6.45;1.30;;;6.50;99.90;;;;;;5070626;28;20044;-61
2022/12/21 10:24:49;;;;;;;5.35;0.88;;;6.60;99.90;;;;;;5077294;28;20048;-62
2022/12/21 10:27:43;;;;;;;8.15;0.90;;;6.70;99.90;;;;;;5070035;28;20051;-61
2022/12/21 10:30:13;;;;;;;6.35;0.80;;;6.70;99.90;;;;;;5075854;28;20064;-61
2022/12/21 10:32:44;;;;;;;;;;;6.80;99.90;;;;;;5073600;28;20044;-62
2022/12/21 10:35:17;;;;;;;8.18;1.20;;;6.90;99.90;;;;;;5086423;28;19919;-63
2022/12/21 10:37:53;;;;;;;3.33;0.95;;;6.90;99.90;;;;;;5079300;28;20054;-61
2022/12/21 10:40:25;;;;;;;6.55;0.95;;;7.50;99.90;;;;;;5072174;28;20055;-61
2022/12/21 10:42:54;;;;;;;3.33;0.70;;;6.80;99.90;;;;;;5076880;28;20074;-62
2022/12/21 10:45:24;;;;;;;8.52;1.50;;;6.80;99.90;;;;;;5089106;28;20047;-62
2022/12/21 10:47:54;;;;;;;9.00;1.27;;;6.80;99.90;;;;;;5073766;28;20045;-62
2022/12/21 10:50:30;;;;;;;4.50;0.68;;;6.80;99.90;;;;;;5081881;28;20222;-60
2022/12/21 10:53:15;;;;;;;9.85;2.25;;;6.80;99.90;;;;;;5079907;28;20048;-60
2022/12/21 10:55:43;;;;;;;6.55;1.45;;;6.80;99.90;;;;;;5080905;28;20052;-59
2022/12/21 10:58:20;;;;;;;6.35;0.77;;;6.90;99.90;;;;;;5081467;28;20055;-60
2022/12/21 11:00:49;;;;;;;3.65;0.90;;;7.00;99.90;;;;;;5066962;28;20645;-60
2022/12/21 11:03:36;;;;;;;5.80;0.70;;;7.20;99.90;;;;;;5080885;28;20040;-59
2022/12/21 11:06:30;;;;;;;8.43;0.98;;;7.20;99.90;;;;;;5076878;28;20044;-60
2022/12/21 11:08:58;;;;;;;5.95;1.10;;;7.40;99.90;;;;;;5077802;28;20075;-61
2022/12/21 11:11:30;;;;;;;6.15;1.30;;;7.70;99.90;;;;;;5070498;28;20654;-61
2022/12/21 11:14:02;;;;;;;6.15;1.08;;;7.70;99.90;;;;;;5080954;28;20495;-60
2022/12/21 11:16:35;;;;;;;9.57;1.05;;;7.80;99.90;;;;;;5080376;28;20036;-60
2022/12/21 11:19:04;;;;;;;3.20;0.80;;;7.90;99.90;;;;;;5082612;28;20048;-61
2022/12/21 11:21:39;;;;;;;7.75;0.85;;;7.90;99.90;;;;;;5079681;28;20040;-59
2022/12/21 11:24:12;;;;;;;7.22;0.77;;;7.90;99.90;;;;;;5083701;28;20051;-59
2022/12/21 11:26:51;;;;;;;10.10;1.17;;;8.00;99.90;;;;;;5075122;28;20040;-60
2022/12/21 11:29:31;;;;;;;6.90;1.00;;;8.10;99.90;;;;;;5085019;28;20055;-60
2022/12/21 11:32:07;;;;;;;3.90;0.75;;;8.10;99.90;;;;;;5068383;28;20400;-60
2022/12/21 11:34:43;;;;;;;5.13;0.68;;;8.10;99.90;;;;;;5069116;28;20609;-59
2022/12/21 11:37:35;;;;;;;7.20;0.90;;;8.10;99.90;;;;;;5077237;28;20040;-59
2022/12/21 11:40:16;;;;;;;7.15;0.98;;;8.20;99.90;;;;;;5076928;28;20045;-59
2022/12/21 11:42:59;;;;;;;7.63;1.30;;;8.40;99.90;;;;;;5080469;28;20040;-59
2022/12/21 11:45:57;;;;;;;8.48;1.27;;;8.40;99.90;;;;;;5075886;28;20051;-60
2022/12/21 11:49:13;;;;;;;5.85;0.90;;;8.50;99.90;;;;;;5074496;28;20029;-60
2022/12/21 11:51:49;;;;;;;6.00;1.00;;;8.70;99.90;;;;;;5073271;28;20040;-57
2022/12/21 11:54:19;;;;;;;3.72;0.70;;;9.00;99.90;;;;;;5085356;28;20048;-58
2022/12/21 11:56:47;;;;;;;7.38;1.67;;;9.20;99.90;;;;;;5084201;28;20044;-58
2022/12/21 11:59:32;;;;;;;8.90;0.85;;;9.40;99.90;;;;;;5085373;28;20044;-60
2022/12/21 12:02:22;;;;;;;9.43;1.38;;;9.60;99.90;;;;;;5084630;28;20510;-58
2022/12/21 12:04:56;;;;;;;4.72;1.75;;;9.90;99.90;;;;;;5087262;28;20040;-59
2022/12/21 12:07:41;;;;;;;5.28;0.95;;;10.00;99.90;;;;;;5079323;28;20059;-59
2022/12/21 12:10:44;;;;;;;7.50;1.10;;;10.30;99.90;;;;;;5072700;28;20047;-59
2022/12/21 12:13:33;;;;;;;6.30;0.95;;;10.30;99.90;;;;;;5075147;28;20052;-58
2022/12/21 12:16:02;;;;;;;10.63;1.83;;;10.50;99.90;;;;;;5087130;28;20062;-59
2022/12/21 12:18:59;;;;;;;4.65;0.82;;;10.60;99.90;;;;;;5087588;28;20064;-59
2022/12/21 12:21:32;;;;;;;11.68;1.40;;;10.90;99.90;;;;;;5079492;28;20044;-60
2022/12/21 12:24:43;;;;;;;4.47;0.90;;;11.10;99.90;;;;;;5081278;28;20044;-60
2022/12/21 12:27:14;;;;;;;12.15;2.75;;;11.50;99.90;;;;;;5043676;28;20199;-60
2022/12/21 12:30:11;;;;;;;12.68;1.30;;;11.50;99.90;;;;;;5087942;28;20059;-60
2022/12/21 12:32:47;;;;;;;6.53;1.13;;;11.70;99.90;;;;;;5087604;28;20048;-61
2022/12/21 12:35:20;;;;;;;8.35;1.05;;;11.70;99.90;;;;;;5072315;28;20048;-60
2022/12/21 12:38:21;;;;;;;7.60;1.42;;;12.00;99.90;;;;;;5071284;28;20248;-60
2022/12/21 12:41:20;;;;;;;5.53;0.60;;;12.20;99.90;;;;;;5068096;28;20057;-60
2022/12/21 12:44:12;;;;;;;6.65;1.00;;;12.50;99.90;;;;;;5083267;28;20527;-60
2022/12/21 12:47:17;;;;;;;5.30;0.90;;;12.90;99.90;;;;;;5086364;28;20047;-61
2022/12/21 12:50:00;;;;;;;10.45;1.50;;;13.00;99.90;;;;;;5071788;28;20055;-60
2022/12/21 12:52:35;;;;;;;7.57;0.80;;;13.00;99.90;;;;;;5086352;28;20056;-60
2022/12/21 12:55:24;;;;;;;11.10;1.10;;;13.20;99.90;;;;;;5086854;28;20063;-60
2022/12/21 12:58:23;;;;;;;6.88;1.23;;;13.30;99.90;;;;;;5075161;28;20044;-61
2022/12/21 13:01:13;;;;;;;5.80;0.95;;;13.30;99.90;;;;;;5081069;28;20552;-60
2022/12/21 13:03:59;;;;;;;;;;;13.30;99.90;;;;;;5090012;28;20044;-61
2022/12/21 13:07:08;;;;;;;5.85;0.88;;;13.40;99.90;;;;;;5084837;28;19966;-62
2022/12/21 13:10:06;;;;;;;5.65;0.82;;;13.40;99.90;;;;;;5071142;28;20047;-62
2022/12/21 13:12:51;;;;;;;8.05;1.10;;;13.40;99.90;;;;;;5085557;28;20036;-62
2022/12/21 13:15:37;;;;;;;5.75;1.30;;;13.50;99.90;;;;;;5085962;28;20393;-60
2022/12/21 13:18:12;;;;;;;5.70;0.90;;;13.60;99.90;;;;;;5077008;28;20040;-61
2022/12/21 13:20:42;;;;;;;7.32;0.85;;;14.00;99.90;;;;;;5089700;28;20395;-60
2022/12/21 13:23:48;;;;;;;10.90;1.45;;;14.00;99.90;;;;;;5078050;28;20502;-61
2022/12/21 13:26:24;;;;;;;7.72;1.08;;;14.20;99.90;;;;;;5070550;28;20072;-60
2022/12/21 13:29:03;;;;;;;12.73;1.48;;;14.20;99.90;;;;;;5082901;28;20044;-61
2022/12/21 13:31:47;;;;;;;8.25;1.08;;;13.70;99.90;;;;;;5086978;28;20040;-61
2022/12/21 13:34:31;;;;;;;6.75;0.65;;;13.10;99.90;;;;;;5087921;28;20044;-61
2022/12/21 13:37:10;;;;;;;7.95;1.65;;;11.80;99.90;;;;;;5079365;28;20071;-60
2022/12/21 13:39:42;;;;;;;6.65;0.70;;;11.70;99.90;;;;;;5069855;28;20052;-60
2022/12/21 13:42:56;;;;;;;7.80;1.05;;;11.30;99.90;;;;;;5078000;28;20094;-60
2022/12/21 13:45:36;;;;;;;5.47;1.17;;;10.90;99.90;;;;;;5050019;28;20045;-59